Port Dufferin, Canada
Current Conditions -  °F | °C
As of 3:46 PM on Thursday 27 Nov 2014 (Local Time) from CYHZ Reporting Station
Snow Showers Snow Showers  
Wind Chill: 22°   Ceiling: 3500
Heat Index: 34°   Visibility: 6mi
Dew Point: 30°   Wind: 22mph
Humidity: 87%   Direction: 330°NNW
Pressure: 29.65"   Gusts: NA
Location:  44.92°N, 62.38°W
Report Text: CYHZ 271946Z 33019KT 6SM -SHSN SCT015 OVC035 01/M01 A2965 RMK SC4SC4 PRESRR SLP046
Loading
Personal Weather Stations






























Interactive Weather Map New forecast layout! Learn more

10-Day Weather Forecast

Advertisements
Track Severe Weather on mobile